createdAt,value
2019-02-05T00:08:12.937Z,-5.80
2019-02-05T00:10:53.552Z,-5.70
2019-02-05T00:13:34.356Z,-5.80
2019-02-05T00:22:12.996Z,-5.70
2019-02-05T00:27:52.434Z,-5.80
2019-02-05T00:42:33.683Z,-5.60
2019-02-05T01:03:25.440Z,-5.80
2019-02-05T01:09:18.512Z,-6.20
2019-02-05T01:11:59.128Z,-5.80
2019-02-05T01:14:39.705Z,-5.80
2019-02-05T01:17:20.651Z,-6.20
2019-02-05T01:25:59.586Z,-6.10
2019-02-05T01:34:51.353Z,-5.80
2019-02-05T01:49:27.636Z,-6.50
2019-02-05T01:52:08.131Z,-6.40
2019-02-05T01:54:48.885Z,-6.40
2019-02-05T02:03:25.869Z,-6.70
2019-02-05T02:09:19.739Z,-6.60
2019-02-05T02:12:00.414Z,-6.50
2019-02-05T02:14:41.164Z,-6.50
2019-02-05T02:17:22.147Z,-6.40
2019-02-05T02:20:02.849Z,-6.50
2019-02-05T02:22:43.451Z,-6.40
2019-02-05T02:25:22.785Z,-6.50
2019-02-05T02:28:10.648Z,-6.40
2019-02-05T02:30:58.550Z,-6.50
2019-02-05T02:33:46.444Z,-6.40
2019-02-05T02:36:34.334Z,-6.40
2019-02-05T02:39:23.833Z,-6.50
2019-02-05T02:42:11.664Z,-6.30
2019-02-05T02:44:59.473Z,-6.40
2019-02-05T02:47:47.445Z,-6.50
2019-02-05T02:50:35.318Z,-6.40
2019-02-05T02:53:23.216Z,-6.40
2019-02-05T02:56:11.085Z,-6.40
2019-02-05T02:58:58.992Z,-6.30
2019-02-05T03:01:46.956Z,-6.20
2019-02-05T03:04:29.282Z,-6.20
2019-02-05T03:07:09.959Z,-6.20
2019-02-05T03:09:50.580Z,-6.00
2019-02-05T03:12:31.084Z,-6.10
2019-02-05T03:15:11.574Z,-6.10
2019-02-05T03:17:52.316Z,-5.90
2019-02-05T03:20:32.862Z,-5.80
2019-02-05T03:23:13.499Z,-6.00
2019-02-05T03:25:53.919Z,-6.00
2019-02-05T03:28:34.751Z,-5.80
2019-02-05T03:31:15.566Z,-5.70
2019-02-05T03:33:56.304Z,-5.60
2019-02-05T03:36:36.747Z,-5.60
2019-02-05T03:39:17.482Z,-5.70
2019-02-05T03:41:57.978Z,-5.70
2019-02-05T03:44:38.463Z,-5.80
2019-02-05T03:47:19.309Z,-5.80
2019-02-05T03:49:59.609Z,-5.90
2019-02-05T03:52:40.369Z,-5.80
2019-02-05T03:55:20.931Z,-5.70
2019-02-05T03:58:01.678Z,-5.60
2019-02-05T04:00:42.711Z,-5.50
2019-02-05T04:03:23.519Z,-4.10
2019-02-05T04:06:04.428Z,-5.50
2019-02-05T04:08:44.976Z,-5.50
2019-02-05T04:14:24.133Z,-5.60
2019-02-05T04:17:04.980Z,-5.50
2019-02-05T04:19:46.015Z,-5.30
2019-02-05T04:22:26.441Z,-5.20
2019-02-05T04:25:07.445Z,-5.20
2019-02-05T04:27:48.028Z,-5.00
2019-02-05T04:30:28.875Z,-5.10
2019-02-05T04:33:09.355Z,-5.00
2019-02-05T04:35:50.020Z,-5.00
2019-02-05T04:38:30.593Z,-5.10
2019-02-05T04:44:10.558Z,-5.00
2019-02-05T04:46:51.013Z,-5.10
2019-02-05T04:49:31.685Z,-5.00
2019-02-05T04:55:10.937Z,-4.80
2019-02-05T04:57:57.449Z,-4.70
2019-02-05T05:01:01.548Z,-4.10
2019-02-05T05:06:57.721Z,-4.60
2019-02-05T05:10:04.841Z,-4.70
2019-02-05T05:12:52.744Z,-4.90
2019-02-05T05:21:17.394Z,-4.90
2019-02-05T05:24:05.361Z,-4.90
2019-02-05T05:29:41.386Z,-5.10
2019-02-05T05:35:17.021Z,-5.00
2019-02-05T05:43:41.663Z,-5.00
2019-02-05T05:46:29.568Z,-5.00
2019-02-05T05:49:17.477Z,-5.00
2019-02-05T05:51:58.372Z,-5.00
2019-02-05T05:54:39.121Z,-5.00
2019-02-05T05:57:19.821Z,-4.80
2019-02-05T06:00:00.695Z,-4.70
2019-02-05T06:02:41.385Z,-4.60
2019-02-05T06:05:21.915Z,-4.60
2019-02-05T06:08:02.623Z,-4.50
2019-02-05T06:10:43.597Z,-4.50
2019-02-05T06:13:24.283Z,-4.50
2019-02-05T06:19:04.066Z,-3.60
2019-02-05T06:21:44.768Z,-4.30
2019-02-05T06:24:25.687Z,-4.40
2019-02-05T06:27:06.665Z,-4.10
2019-02-05T06:33:00.019Z,-3.90
2019-02-05T06:35:40.665Z,-4.10
2019-02-05T06:38:21.954Z,-3.90
2019-02-05T06:44:15.107Z,-4.10
2019-02-05T06:50:08.239Z,-3.80
2019-02-05T06:52:48.954Z,-3.80
2019-02-05T06:55:29.923Z,-3.70
2019-02-05T06:58:10.760Z,-3.60
2019-02-05T07:00:51.736Z,-3.60
2019-02-05T07:03:32.616Z,-3.60
2019-02-05T07:06:13.714Z,-3.80
2019-02-05T07:08:54.796Z,-3.80
2019-02-05T07:11:35.973Z,-3.90
2019-02-05T07:14:16.718Z,-3.90
2019-02-05T07:16:57.731Z,-3.70
2019-02-05T07:19:38.384Z,-3.70
2019-02-05T07:28:18.250Z,-3.30
2019-02-05T07:30:58.790Z,-3.40
2019-02-05T07:33:39.592Z,-3.50
2019-02-05T07:36:20.180Z,-3.70
2019-02-05T07:39:01.258Z,-3.70
2019-02-05T07:47:39.296Z,-3.50
2019-02-05T07:50:20.089Z,-3.70
2019-02-05T07:53:00.689Z,-3.60
2019-02-05T07:55:41.379Z,-3.60
2019-02-05T07:58:22.031Z,-3.50
2019-02-05T08:01:02.691Z,-3.50
2019-02-05T08:03:43.489Z,-3.50
2019-02-05T08:06:24.141Z,-3.50
2019-02-05T08:09:04.859Z,-3.50
2019-02-05T08:14:44.531Z,-3.30
2019-02-05T08:17:25.113Z,-3.20
2019-02-05T08:20:06.136Z,-3.00
2019-02-05T08:22:47.163Z,-2.80
2019-02-05T08:25:27.825Z,-2.90
2019-02-05T08:28:08.465Z,-2.90
2019-02-05T08:30:49.554Z,-2.80
2019-02-05T08:33:30.416Z,-2.70
2019-02-05T08:36:11.233Z,-2.50
2019-02-05T08:38:52.049Z,-2.50
2019-02-05T08:41:32.834Z,-2.70
2019-02-05T08:44:13.883Z,-2.70
2019-02-05T08:46:54.781Z,-2.70
2019-02-05T08:49:35.446Z,-2.50
2019-02-05T08:58:15.289Z,-2.10
2019-02-05T09:00:55.845Z,-2.30
2019-02-05T09:03:36.737Z,-2.20
2019-02-05T09:12:28.760Z,-2.50
2019-02-05T09:15:09.361Z,-2.40
2019-02-05T09:17:50.191Z,-2.40
2019-02-05T09:20:30.925Z,-2.10
2019-02-05T09:23:14.236Z,-2.00
2019-02-05T09:25:53.870Z,-2.10
2019-02-05T09:31:47.578Z,-2.30
2019-02-05T09:34:28.203Z,-2.30
2019-02-05T09:37:08.995Z,-2.30
2019-02-05T09:51:44.845Z,-2.10
2019-02-05T10:03:14.630Z,-2.20
2019-02-05T10:06:02.627Z,-2.10
2019-02-05T10:08:50.507Z,-1.90
2019-02-05T10:11:38.372Z,-1.70
2019-02-05T10:14:26.268Z,-1.60
2019-02-05T10:20:24.098Z,-1.40
2019-02-05T10:23:12.202Z,-1.30
2019-02-05T10:26:00.164Z,-1.50
2019-02-05T10:28:49.665Z,-1.30
2019-02-05T10:31:37.571Z,-1.20
2019-02-05T10:34:33.831Z,-1.00
2019-02-05T10:37:14.990Z,-1.10
2019-02-05T10:42:50.424Z,-1.10
2019-02-05T10:45:31.338Z,-1.30
2019-02-05T10:48:11.828Z,-1.30
2019-02-05T10:50:52.434Z,-1.40
2019-02-05T10:53:33.365Z,-1.50
2019-02-05T10:56:14.079Z,-1.20
2019-02-05T10:58:54.884Z,-1.30
2019-02-05T11:01:35.454Z,-1.20
2019-02-05T11:04:16.348Z,-1.20
2019-02-05T11:06:57.423Z,-1.00
2019-02-05T11:12:36.426Z,-0.60
2019-02-05T11:18:29.857Z,-0.70
2019-02-05T11:21:10.215Z,-1.00
2019-02-05T11:23:50.948Z,-0.80
2019-02-05T11:26:31.720Z,-0.60
2019-02-05T11:29:12.421Z,-0.50
2019-02-05T11:31:53.058Z,-0.30
2019-02-05T11:34:33.904Z,-0.30
2019-02-05T11:37:14.749Z,-0.60
2019-02-05T11:39:55.492Z,-0.70
2019-02-05T11:42:36.271Z,-0.70
2019-02-05T11:48:16.201Z,-0.60
2019-02-05T11:50:56.889Z,-0.60
2019-02-05T11:53:37.590Z,-0.70
2019-02-05T11:56:18.409Z,-0.80
2019-02-05T11:58:58.807Z,-0.90
2019-02-05T12:01:39.574Z,-0.80
2019-02-05T12:04:20.769Z,-0.90
2019-02-05T12:07:01.410Z,-0.60
2019-02-05T12:09:42.106Z,-0.90
2019-02-05T12:12:22.449Z,-0.80
2019-02-05T12:15:03.053Z,-0.80
2019-02-05T12:17:43.774Z,-0.90
2019-02-05T12:20:24.462Z,-0.60
2019-02-05T12:23:04.877Z,-0.40
2019-02-05T12:25:45.767Z,-0.90
2019-02-05T12:28:26.436Z,-1.20
2019-02-05T12:31:07.029Z,-0.60
2019-02-05T12:33:47.453Z,-0.60
2019-02-05T12:36:28.019Z,-0.70
2019-02-05T12:39:08.557Z,-0.60
2019-02-05T12:41:49.565Z,-0.50
2019-02-05T12:44:30.341Z,-0.90
2019-02-05T12:47:11.169Z,-0.50
2019-02-05T12:49:52.062Z,-0.50
2019-02-05T12:52:32.799Z,-0.40
2019-02-05T12:55:16.261Z,-1.00
2019-02-05T13:00:58.233Z,-1.20
2019-02-05T13:03:37.993Z,-0.30
2019-02-05T13:06:18.515Z,-0.80
2019-02-05T13:08:59.167Z,-0.70
2019-02-05T13:14:39.020Z,-0.80
2019-02-05T13:17:19.845Z,-0.40
2019-02-05T13:20:00.958Z,0.20
2019-02-05T13:22:42.067Z,-0.20
2019-02-05T13:28:34.751Z,-0.40
2019-02-05T13:31:15.630Z,-0.40
2019-02-05T13:33:56.820Z,-0.30
2019-02-05T13:36:37.811Z,-0.40
2019-02-05T13:39:18.832Z,-0.10
2019-02-05T13:41:59.485Z,-0.20
2019-02-05T13:44:40.275Z,-0.20
2019-02-05T13:47:21.150Z,-0.10
2019-02-05T13:50:01.598Z,-0.60
2019-02-05T13:52:42.618Z,-0.50
2019-02-05T13:55:23.670Z,-0.40
2019-02-05T14:01:02.534Z,-0.30
2019-02-05T14:03:43.178Z,-0.40
2019-02-05T14:06:25.522Z,-0.50
2019-02-05T14:09:10.633Z,-0.60
2019-02-05T14:11:49.140Z,-0.40
2019-02-05T14:14:29.960Z,-0.50
2019-02-05T14:17:11.024Z,-0.30
2019-02-05T14:19:51.990Z,-0.30
2019-02-05T14:22:32.988Z,-0.90
2019-02-05T14:25:14.030Z,-0.60
2019-02-05T14:27:55.000Z,-0.40
2019-02-05T14:30:35.800Z,-0.30
2019-02-05T14:33:17.308Z,-0.30
2019-02-05T14:39:11.118Z,-0.30
2019-02-05T14:41:51.987Z,-0.30
2019-02-05T14:44:32.633Z,-0.60
2019-02-05T14:47:13.602Z,-0.50
2019-02-05T14:49:54.016Z,-0.60
2019-02-05T14:52:34.636Z,-0.60
2019-02-05T14:58:15.834Z,-0.40
2019-02-05T15:00:56.687Z,-0.40
2019-02-05T15:03:37.390Z,-0.20
2019-02-05T15:06:18.103Z,-0.30
2019-02-05T15:08:58.762Z,-0.30
2019-02-05T15:11:39.822Z,-0.20
2019-02-05T15:14:20.518Z,-0.10
2019-02-05T15:17:01.202Z,-0.30
2019-02-05T15:19:41.774Z,-0.50
2019-02-05T15:22:22.572Z,-0.40
2019-02-05T15:25:03.320Z,-0.40
2019-02-05T15:27:43.909Z,-0.20
2019-02-05T15:30:26.967Z,-0.30
2019-02-05T15:38:56.610Z,-0.50
2019-02-05T15:41:37.583Z,-0.60
2019-02-05T15:44:18.679Z,-0.60
2019-02-05T15:46:59.373Z,-0.70
2019-02-05T15:49:40.353Z,-0.80
2019-02-05T15:52:21.183Z,-0.60
2019-02-05T15:55:02.037Z,-0.70
2019-02-05T15:57:43.691Z,-0.70
2019-02-05T16:00:24.879Z,-0.90
2019-02-05T16:03:05.969Z,-0.80
2019-02-05T16:05:46.905Z,-0.60
2019-02-05T16:08:27.518Z,-0.70
2019-02-05T16:11:08.399Z,-0.70
2019-02-05T16:13:48.977Z,-0.80
2019-02-05T16:16:29.519Z,-0.80
2019-02-05T16:22:10.454Z,-1.10
2019-02-05T16:27:50.351Z,-1.00
2019-02-05T16:33:33.571Z,-0.80
2019-02-05T16:36:14.377Z,-0.70
2019-02-05T16:59:44.449Z,-0.90
2019-02-05T17:05:39.119Z,-0.60
2019-02-05T17:11:18.686Z,-0.70
2019-02-05T17:13:59.461Z,-1.30
2019-02-05T17:43:26.318Z,-1.60
2019-02-05T17:46:07.261Z,-1.50
2019-02-05T17:48:48.014Z,-1.70
2019-02-05T18:15:35.807Z,-1.40
2019-02-05T18:24:28.622Z,-1.40
2019-02-05T18:30:21.812Z,-1.60
2019-02-05T18:36:23.730Z,-1.70
2019-02-05T18:45:28.116Z,-1.40
2019-02-05T18:48:49.488Z,-1.50
2019-02-05T18:57:19.775Z,-1.30
2019-02-05T19:00:28.416Z,-1.60
2019-02-05T19:06:24.225Z,-1.70
2019-02-05T19:09:05.824Z,-1.80
2019-02-05T19:11:53.715Z,-1.90
2019-02-05T19:17:29.275Z,-2.00
2019-02-05T19:32:02.111Z,-1.70
2019-02-05T19:46:21.458Z,-2.30
2019-02-05T19:52:16.376Z,-2.40
2019-02-05T19:54:59.557Z,-2.20
2019-02-05T20:06:36.899Z,-2.30
2019-02-05T20:09:17.627Z,-2.80
2019-02-05T20:17:55.966Z,-2.00
2019-02-05T20:20:37.112Z,-1.80
2019-02-05T20:23:20.166Z,-1.90
2019-02-05T20:26:00.587Z,-2.10
2019-02-05T20:34:40.460Z,-2.30
2019-02-05T20:37:21.750Z,-2.20
2019-02-05T20:46:00.780Z,-2.20
2019-02-05T20:48:41.486Z,-2.10
2019-02-05T20:57:19.306Z,-2.10
2019-02-05T21:09:11.434Z,-2.10
2019-02-05T21:11:52.087Z,-1.40
2019-02-05T21:14:35.612Z,-1.70
2019-02-05T21:17:16.399Z,-1.70
2019-02-05T21:29:06.382Z,-1.90
2019-02-05T21:40:41.844Z,-2.00
2019-02-05T21:46:35.964Z,-2.20
2019-02-05T21:52:29.874Z,-2.10
2019-02-05T21:55:10.497Z,-1.90
2019-02-05T21:57:51.473Z,-1.70
2019-02-05T22:03:30.859Z,-2.10
2019-02-05T22:06:11.811Z,-1.90
2019-02-05T22:08:52.694Z,-2.00
2019-02-05T22:11:33.360Z,-2.10
2019-02-05T22:20:11.554Z,-2.40
2019-02-05T22:32:01.240Z,-2.00
2019-02-05T22:34:42.132Z,-2.20
2019-02-05T22:40:21.999Z,-2.20
2019-02-05T22:46:01.673Z,-1.80
2019-02-05T22:54:53.725Z,-2.20
2019-02-05T22:57:34.560Z,-2.20
2019-02-05T23:00:16.103Z,-2.50
2019-02-05T23:02:56.823Z,-2.00
2019-02-05T23:08:35.921Z,-2.90
2019-02-05T23:11:16.261Z,-2.90
2019-02-05T23:16:55.445Z,-2.70
2019-02-05T23:31:30.627Z,-3.20
2019-02-05T23:34:11.614Z,-2.70
2019-02-05T23:42:50.641Z,-2.70
2019-02-05T23:45:31.202Z,-2.80
2019-02-05T23:48:12.089Z,-3.20
2019-02-05T23:50:52.821Z,-3.70
2019-02-05T23:59:30.819Z,-2.90
